sensor_id;sensor_type;location;lat;lon;timestamp;P1;durP1;ratioP1;P2;durP2;ratioP2
38425;SDS011;24210;51.460;6.148;2022-12-18T00:00:56;35.38;;;21.17;;
38425;SDS011;24210;51.460;6.148;2022-12-18T00:03:21;30.90;;;20.20;;
38425;SDS011;24210;51.460;6.148;2022-12-18T00:05:49;29.43;;;19.23;;
38425;SDS011;24210;51.460;6.148;2022-12-18T00:08:15;29.63;;;20.13;;
38425;SDS011;24210;51.460;6.148;2022-12-18T00:10:41;31.23;;;19.97;;
38425;SDS011;24210;51.460;6.148;2022-12-18T00:13:06;34.07;;;21.10;;
38425;SDS011;24210;51.460;6.148;2022-12-18T00:15:33;34.73;;;22.27;;
38425;SDS011;24210;51.460;6.148;2022-12-18T00:17:58;37.17;;;22.00;;
38425;SDS011;24210;51.460;6.148;2022-12-18T00:20:24;42.47;;;25.17;;
38425;SDS011;24210;51.460;6.148;2022-12-18T00:22:51;37.40;;;22.55;;
38425;SDS011;24210;51.460;6.148;2022-12-18T00:25:16;32.90;;;19.73;;
38425;SDS011;24210;51.460;6.148;2022-12-18T00:27:41;31.93;;;20.33;;
38425;SDS011;24210;51.460;6.148;2022-12-18T00:30:07;34.03;;;20.30;;
38425;SDS011;24210;51.460;6.148;2022-12-18T00:32:32;28.57;;;18.40;;
38425;SDS011;24210;51.460;6.148;2022-12-18T00:34:57;29.60;;;19.03;;
38425;SDS011;24210;51.460;6.148;2022-12-18T00:37:22;25.80;;;18.53;;
38425;SDS011;24210;51.460;6.148;2022-12-18T00:39:48;25.90;;;16.93;;
38425;SDS011;24210;51.460;6.148;2022-12-18T00:42:13;27.63;;;17.80;;
38425;SDS011;24210;51.460;6.148;2022-12-18T00:44:57;31.67;;;18.05;;
38425;SDS011;24210;51.460;6.148;2022-12-18T00:47:22;29.90;;;19.33;;
38425;SDS011;24210;51.460;6.148;2022-12-18T00:49:47;29.80;;;18.10;;
38425;SDS011;24210;51.460;6.148;2022-12-18T00:52:12;26.80;;;17.80;;
38425;SDS011;24210;51.460;6.148;2022-12-18T00:54:37;26.73;;;18.10;;
38425;SDS011;24210;51.460;6.148;2022-12-18T00:57:03;29.03;;;19.27;;
38425;SDS011;24210;51.460;6.148;2022-12-18T00:59:28;28.60;;;18.50;;
38425;SDS011;24210;51.460;6.148;2022-12-18T01:01:54;27.45;;;17.27;;
38425;SDS011;24210;51.460;6.148;2022-12-18T01:04:20;27.03;;;17.13;;
38425;SDS011;24210;51.460;6.148;2022-12-18T01:06:45;26.40;;;16.57;;
38425;SDS011;24210;51.460;6.148;2022-12-18T01:09:10;25.17;;;17.37;;
38425;SDS011;24210;51.460;6.148;2022-12-18T01:11:36;28.63;;;17.73;;
38425;SDS011;24210;51.460;6.148;2022-12-18T01:14:01;27.00;;;16.77;;
38425;SDS011;24210;51.460;6.148;2022-12-18T01:16:26;28.53;;;17.57;;
38425;SDS011;24210;51.460;6.148;2022-12-18T01:18:52;27.50;;;17.73;;
38425;SDS011;24210;51.460;6.148;2022-12-18T01:21:19;27.40;;;16.88;;
38425;SDS011;24210;51.460;6.148;2022-12-18T01:23:44;26.10;;;17.13;;
38425;SDS011;24210;51.460;6.148;2022-12-18T01:26:11;26.60;;;17.40;;
38425;SDS011;24210;51.460;6.148;2022-12-18T01:28:36;25.63;;;16.27;;
38425;SDS011;24210;51.460;6.148;2022-12-18T01:31:12;28.10;;;17.27;;
38425;SDS011;24210;51.460;6.148;2022-12-18T01:33:37;27.17;;;17.05;;
38425;SDS011;24210;51.460;6.148;2022-12-18T01:36:02;25.10;;;16.63;;
38425;SDS011;24210;51.460;6.148;2022-12-18T01:38:28;26.13;;;17.00;;
38425;SDS011;24210;51.460;6.148;2022-12-18T01:40:57;24.30;;;16.17;;
38425;SDS011;24210;51.460;6.148;2022-12-18T01:43:22;26.98;;;17.75;;
38425;SDS011;24210;51.460;6.148;2022-12-18T01:45:47;24.70;;;15.77;;
38425;SDS011;24210;51.460;6.148;2022-12-18T01:48:12;29.43;;;18.03;;
38425;SDS011;24210;51.460;6.148;2022-12-18T01:50:41;27.67;;;15.93;;
38425;SDS011;24210;51.460;6.148;2022-12-18T01:55:40;24.23;;;16.40;;
38425;SDS011;24210;51.460;6.148;2022-12-18T01:58:07;23.90;;;15.45;;
38425;SDS011;24210;51.460;6.148;2022-12-18T02:00:32;28.47;;;16.77;;
38425;SDS011;24210;51.460;6.148;2022-12-18T02:02:57;25.03;;;15.90;;
38425;SDS011;24210;51.460;6.148;2022-12-18T02:06:09;25.60;;;16.20;;
38425;SDS011;24210;51.460;6.148;2022-12-18T02:17:52;23.83;;;15.87;;
38425;SDS011;24210;51.460;6.148;2022-12-18T02:23:10;23.30;;;14.02;;
38425;SDS011;24210;51.460;6.148;2022-12-18T02:28:21;24.77;;;15.70;;
38425;SDS011;24210;51.460;6.148;2022-12-18T02:30:48;21.98;;;14.20;;
38425;SDS011;24210;51.460;6.148;2022-12-18T02:33:14;24.08;;;15.60;;
38425;SDS011;24210;51.460;6.148;2022-12-18T02:35:40;22.30;;;13.57;;
38425;SDS011;24210;51.460;6.148;2022-12-18T02:38:06;22.90;;;14.77;;
38425;SDS011;24210;51.460;6.148;2022-12-18T02:40:32;23.40;;;14.80;;
38425;SDS011;24210;51.460;6.148;2022-12-18T02:43:07;28.17;;;15.07;;
38425;SDS011;24210;51.460;6.148;2022-12-18T02:45:33;22.45;;;14.88;;
38425;SDS011;24210;51.460;6.148;2022-12-18T02:47:58;20.00;;;13.87;;
38425;SDS011;24210;51.460;6.148;2022-12-18T02:50:31;23.13;;;15.10;;
38425;SDS011;24210;51.460;6.148;2022-12-18T02:58:05;18.85;;;12.50;;
38425;SDS011;24210;51.460;6.148;2022-12-18T03:00:41;22.27;;;13.95;;
38425;SDS011;24210;51.460;6.148;2022-12-18T03:03:10;21.40;;;14.52;;
38425;SDS011;24210;51.460;6.148;2022-12-18T03:05:45;21.85;;;13.45;;
38425;SDS011;24210;51.460;6.148;2022-12-18T03:08:13;22.05;;;14.55;;
38425;SDS011;24210;51.460;6.148;2022-12-18T03:10:45;21.75;;;14.70;;
38425;SDS011;24210;51.460;6.148;2022-12-18T03:13:15;21.15;;;13.25;;
38425;SDS011;24210;51.460;6.148;2022-12-18T03:15:45;20.73;;;13.82;;
38425;SDS011;24210;51.460;6.148;2022-12-18T03:18:32;19.42;;;13.18;;
38425;SDS011;24210;51.460;6.148;2022-12-18T03:20:58;18.23;;;12.27;;
38425;SDS011;24210;51.460;6.148;2022-12-18T03:23:27;18.55;;;12.73;;
38425;SDS011;24210;51.460;6.148;2022-12-18T03:25:54;20.05;;;13.50;;
38425;SDS011;24210;51.460;6.148;2022-12-18T03:28:21;20.95;;;14.32;;
38425;SDS011;24210;51.460;6.148;2022-12-18T03:30:47;21.80;;;12.52;;
38425;SDS011;24210;51.460;6.148;2022-12-18T03:35:40;20.35;;;12.85;;
38425;SDS011;24210;51.460;6.148;2022-12-18T03:38:06;20.23;;;13.00;;
38425;SDS011;24210;51.460;6.148;2022-12-18T03:48:55;22.27;;;14.93;;
38425;SDS011;24210;51.460;6.148;2022-12-18T03:51:24;24.50;;;14.63;;
38425;SDS011;24210;51.460;6.148;2022-12-18T03:53:53;19.77;;;13.90;;
38425;SDS011;24210;51.460;6.148;2022-12-18T03:56:21;20.67;;;15.23;;
38425;SDS011;24210;51.460;6.148;2022-12-18T03:58:47;20.25;;;13.70;;
38425;SDS011;24210;51.460;6.148;2022-12-18T04:01:13;23.57;;;13.10;;
38425;SDS011;24210;51.460;6.148;2022-12-18T04:03:39;19.60;;;13.45;;
38425;SDS011;24210;51.460;6.148;2022-12-18T04:06:06;20.10;;;13.52;;
38425;SDS011;24210;51.460;6.148;2022-12-18T04:08:31;19.63;;;14.70;;
38425;SDS011;24210;51.460;6.148;2022-12-18T04:10:58;22.48;;;15.43;;
38425;SDS011;24210;51.460;6.148;2022-12-18T04:13:28;21.92;;;13.55;;
38425;SDS011;24210;51.460;6.148;2022-12-18T04:15:53;22.67;;;14.75;;
38425;SDS011;24210;51.460;6.148;2022-12-18T04:18:18;22.63;;;14.37;;
38425;SDS011;24210;51.460;6.148;2022-12-18T04:20:44;21.63;;;13.73;;
38425;SDS011;24210;51.460;6.148;2022-12-18T04:23:09;23.33;;;14.27;;
38425;SDS011;24210;51.460;6.148;2022-12-18T04:25:34;21.73;;;15.30;;
38425;SDS011;24210;51.460;6.148;2022-12-18T04:27:59;21.77;;;15.03;;
38425;SDS011;24210;51.460;6.148;2022-12-18T04:30:24;21.57;;;14.40;;
38425;SDS011;24210;51.460;6.148;2022-12-18T04:32:50;23.47;;;15.20;;
38425;SDS011;24210;51.460;6.148;2022-12-18T04:35:15;23.10;;;14.17;;
38425;SDS011;24210;51.460;6.148;2022-12-18T04:37:40;24.47;;;15.27;;
38425;SDS011;24210;51.460;6.148;2022-12-18T04:40:05;22.60;;;13.90;;
38425;SDS011;24210;51.460;6.148;2022-12-18T04:42:31;23.13;;;14.93;;
38425;SDS011;24210;51.460;6.148;2022-12-18T04:44:56;23.90;;;14.37;;
38425;SDS011;24210;51.460;6.148;2022-12-18T04:47:21;26.27;;;16.43;;
38425;SDS011;24210;51.460;6.148;2022-12-18T04:49:46;23.90;;;13.93;;
38425;SDS011;24210;51.460;6.148;2022-12-18T04:52:12;28.17;;;16.63;;
38425;SDS011;24210;51.460;6.148;2022-12-18T04:54:37;23.67;;;14.30;;
38425;SDS011;24210;51.460;6.148;2022-12-18T04:57:02;22.13;;;16.40;;
38425;SDS011;24210;51.460;6.148;2022-12-18T04:59:27;27.57;;;15.70;;
38425;SDS011;24210;51.460;6.148;2022-12-18T05:01:53;21.03;;;12.43;;
38425;SDS011;24210;51.460;6.148;2022-12-18T05:04:18;19.77;;;13.90;;
38425;SDS011;24210;51.460;6.148;2022-12-18T05:06:43;22.57;;;13.83;;
38425;SDS011;24210;51.460;6.148;2022-12-18T05:09:08;25.17;;;15.60;;
38425;SDS011;24210;51.460;6.148;2022-12-18T05:11:33;17.83;;;12.30;;
38425;SDS011;24210;51.460;6.148;2022-12-18T05:13:59;21.90;;;13.30;;
38425;SDS011;24210;51.460;6.148;2022-12-18T05:16:24;21.93;;;14.10;;
38425;SDS011;24210;51.460;6.148;2022-12-18T05:18:49;24.33;;;14.27;;
38425;SDS011;24210;51.460;6.148;2022-12-18T05:21:14;22.17;;;14.63;;
38425;SDS011;24210;51.460;6.148;2022-12-18T05:23:39;21.57;;;14.13;;
38425;SDS011;24210;51.460;6.148;2022-12-18T05:26:05;22.27;;;13.17;;
38425;SDS011;24210;51.460;6.148;2022-12-18T05:28:31;21.83;;;14.03;;
38425;SDS011;24210;51.460;6.148;2022-12-18T05:30:58;21.42;;;13.43;;
38425;SDS011;24210;51.460;6.148;2022-12-18T05:33:24;23.65;;;14.32;;
38425;SDS011;24210;51.460;6.148;2022-12-18T05:35:56;20.00;;;13.02;;
38425;SDS011;24210;51.460;6.148;2022-12-18T05:38:22;18.52;;;12.65;;
38425;SDS011;24210;51.460;6.148;2022-12-18T05:40:48;20.88;;;14.00;;
38425;SDS011;24210;51.460;6.148;2022-12-18T05:43:13;25.02;;;16.05;;
38425;SDS011;24210;51.460;6.148;2022-12-18T05:45:39;19.13;;;12.70;;
38425;SDS011;24210;51.460;6.148;2022-12-18T05:48:05;19.67;;;13.00;;
38425;SDS011;24210;51.460;6.148;2022-12-18T05:50:30;20.80;;;12.73;;
38425;SDS011;24210;51.460;6.148;2022-12-18T05:52:55;20.03;;;14.17;;
38425;SDS011;24210;51.460;6.148;2022-12-18T05:55:20;20.37;;;13.50;;
38425;SDS011;24210;51.460;6.148;2022-12-18T05:57:46;21.70;;;14.93;;
38425;SDS011;24210;51.460;6.148;2022-12-18T06:00:11;22.43;;;13.37;;
38425;SDS011;24210;51.460;6.148;2022-12-18T06:02:37;17.43;;;11.60;;
38425;SDS011;24210;51.460;6.148;2022-12-18T06:05:02;18.60;;;13.13;;
38425;SDS011;24210;51.460;6.148;2022-12-18T06:07:27;22.93;;;13.53;;
38425;SDS011;24210;51.460;6.148;2022-12-18T06:09:52;19.07;;;13.27;;
38425;SDS011;24210;51.460;6.148;2022-12-18T06:12:17;21.10;;;12.67;;
38425;SDS011;24210;51.460;6.148;2022-12-18T06:14:43;22.57;;;13.27;;
38425;SDS011;24210;51.460;6.148;2022-12-18T06:17:08;20.03;;;12.77;;
38425;SDS011;24210;51.460;6.148;2022-12-18T06:19:33;23.37;;;14.73;;
38425;SDS011;24210;51.460;6.148;2022-12-18T06:21:59;22.20;;;14.47;;
38425;SDS011;24210;51.460;6.148;2022-12-18T06:24:24;24.23;;;13.70;;
38425;SDS011;24210;51.460;6.148;2022-12-18T06:26:49;21.50;;;14.30;;
38425;SDS011;24210;51.460;6.148;2022-12-18T06:29:15;21.10;;;12.80;;
38425;SDS011;24210;51.460;6.148;2022-12-18T06:31:40;20.33;;;14.93;;
38425;SDS011;24210;51.460;6.148;2022-12-18T06:34:05;20.73;;;12.80;;
38425;SDS011;24210;51.460;6.148;2022-12-18T06:36:30;18.33;;;13.87;;
38425;SDS011;24210;51.460;6.148;2022-12-18T06:38:56;21.80;;;14.27;;
38425;SDS011;24210;51.460;6.148;2022-12-18T06:41:21;21.47;;;15.23;;
38425;SDS011;24210;51.460;6.148;2022-12-18T06:43:47;21.63;;;13.67;;
38425;SDS011;24210;51.460;6.148;2022-12-18T06:46:12;18.83;;;12.90;;
38425;SDS011;24210;51.460;6.148;2022-12-18T06:48:38;18.70;;;13.90;;
38425;SDS011;24210;51.460;6.148;2022-12-18T06:51:03;20.53;;;13.57;;
38425;SDS011;24210;51.460;6.148;2022-12-18T06:53:28;20.47;;;13.43;;
38425;SDS011;24210;51.460;6.148;2022-12-18T06:56:04;17.87;;;14.53;;
38425;SDS011;24210;51.460;6.148;2022-12-18T06:58:29;21.80;;;15.33;;
38425;SDS011;24210;51.460;6.148;2022-12-18T07:01:04;21.77;;;13.33;;
38425;SDS011;24210;51.460;6.148;2022-12-18T07:03:29;20.27;;;14.55;;
38425;SDS011;24210;51.460;6.148;2022-12-18T07:05:55;26.33;;;15.73;;
38425;SDS011;24210;51.460;6.148;2022-12-18T07:08:20;24.20;;;16.03;;
38425;SDS011;24210;51.460;6.148;2022-12-18T07:10:46;20.60;;;15.57;;
38425;SDS011;24210;51.460;6.148;2022-12-18T07:13:11;23.73;;;15.57;;
38425;SDS011;24210;51.460;6.148;2022-12-18T07:15:36;21.27;;;15.37;;
38425;SDS011;24210;51.460;6.148;2022-12-18T07:18:01;21.83;;;14.97;;
38425;SDS011;24210;51.460;6.148;2022-12-18T07:20:27;22.40;;;15.90;;
38425;SDS011;24210;51.460;6.148;2022-12-18T07:22:52;23.17;;;17.20;;
38425;SDS011;24210;51.460;6.148;2022-12-18T07:25:17;22.57;;;14.03;;
38425;SDS011;24210;51.460;6.148;2022-12-18T07:27:42;22.80;;;14.33;;
38425;SDS011;24210;51.460;6.148;2022-12-18T07:30:08;24.17;;;17.30;;
38425;SDS011;24210;51.460;6.148;2022-12-18T07:32:33;25.03;;;16.87;;
38425;SDS011;24210;51.460;6.148;2022-12-18T07:34:59;21.83;;;16.17;;
38425;SDS011;24210;51.460;6.148;2022-12-18T07:37:24;23.37;;;16.03;;
38425;SDS011;24210;51.460;6.148;2022-12-18T07:39:49;23.17;;;14.17;;
38425;SDS011;24210;51.460;6.148;2022-12-18T07:42:15;24.60;;;15.40;;
38425;SDS011;24210;51.460;6.148;2022-12-18T07:44:55;24.50;;;17.50;;
38425;SDS011;24210;51.460;6.148;2022-12-18T07:47:21;26.63;;;15.80;;
38425;SDS011;24210;51.460;6.148;2022-12-18T07:49:46;23.87;;;16.47;;
38425;SDS011;24210;51.460;6.148;2022-12-18T07:52:11;23.40;;;15.03;;
38425;SDS011;24210;51.460;6.148;2022-12-18T07:54:37;23.50;;;16.23;;
38425;SDS011;24210;51.460;6.148;2022-12-18T07:57:02;25.73;;;17.27;;
38425;SDS011;24210;51.460;6.148;2022-12-18T07:59:27;26.60;;;16.73;;
38425;SDS011;24210;51.460;6.148;2022-12-18T08:01:53;29.63;;;17.50;;
38425;SDS011;24210;51.460;6.148;2022-12-18T08:04:18;27.13;;;17.30;;
38425;SDS011;24210;51.460;6.148;2022-12-18T08:06:43;28.10;;;17.73;;
38425;SDS011;24210;51.460;6.148;2022-12-18T08:09:09;24.43;;;17.90;;
38425;SDS011;24210;51.460;6.148;2022-12-18T08:11:34;24.98;;;16.70;;
38425;SDS011;24210;51.460;6.148;2022-12-18T08:14:00;26.40;;;17.07;;
38425;SDS011;24210;51.460;6.148;2022-12-18T08:16:25;23.23;;;16.93;;
38425;SDS011;24210;51.460;6.148;2022-12-18T08:18:51;24.50;;;16.33;;
38425;SDS011;24210;51.460;6.148;2022-12-18T08:21:18;22.53;;;13.93;;
38425;SDS011;24210;51.460;6.148;2022-12-18T08:23:45;24.00;;;15.85;;
38425;SDS011;24210;51.460;6.148;2022-12-18T08:26:11;24.40;;;16.93;;
38425;SDS011;24210;51.460;6.148;2022-12-18T08:28:36;25.57;;;17.13;;
38425;SDS011;24210;51.460;6.148;2022-12-18T08:31:02;24.97;;;17.07;;
38425;SDS011;24210;51.460;6.148;2022-12-18T08:33:27;22.20;;;14.50;;
38425;SDS011;24210;51.460;6.148;2022-12-18T08:35:52;22.57;;;16.00;;
38425;SDS011;24210;51.460;6.148;2022-12-18T08:38:18;21.23;;;15.57;;
38425;SDS011;24210;51.460;6.148;2022-12-18T08:40:43;25.23;;;17.43;;
38425;SDS011;24210;51.460;6.148;2022-12-18T08:43:09;22.77;;;15.50;;
38425;SDS011;24210;51.460;6.148;2022-12-18T08:45:53;24.30;;;16.27;;
38425;SDS011;24210;51.460;6.148;2022-12-18T08:48:18;21.13;;;15.77;;
38425;SDS011;24210;51.460;6.148;2022-12-18T08:50:43;23.37;;;17.57;;
38425;SDS011;24210;51.460;6.148;2022-12-18T08:53:08;24.87;;;16.57;;
38425;SDS011;24210;51.460;6.148;2022-12-18T08:55:34;26.13;;;16.03;;
38425;SDS011;24210;51.460;6.148;2022-12-18T08:57:59;23.63;;;14.50;;
38425;SDS011;24210;51.460;6.148;2022-12-18T09:00:25;24.97;;;15.60;;
38425;SDS011;24210;51.460;6.148;2022-12-18T09:02:50;22.07;;;15.30;;
38425;SDS011;24210;51.460;6.148;2022-12-18T09:05:15;23.07;;;16.47;;
38425;SDS011;24210;51.460;6.148;2022-12-18T09:07:40;22.90;;;16.77;;
38425;SDS011;24210;51.460;6.148;2022-12-18T09:10:05;23.77;;;16.37;;
38425;SDS011;24210;51.460;6.148;2022-12-18T09:12:31;25.93;;;18.10;;
38425;SDS011;24210;51.460;6.148;2022-12-18T09:14:56;22.70;;;15.73;;
38425;SDS011;24210;51.460;6.148;2022-12-18T09:17:22;24.50;;;15.73;;
38425;SDS011;24210;51.460;6.148;2022-12-18T09:19:47;23.60;;;15.53;;
38425;SDS011;24210;51.460;6.148;2022-12-18T09:22:12;19.53;;;15.23;;
38425;SDS011;24210;51.460;6.148;2022-12-18T09:24:37;25.70;;;15.50;;
38425;SDS011;24210;51.460;6.148;2022-12-18T09:27:03;22.30;;;14.43;;
38425;SDS011;24210;51.460;6.148;2022-12-18T09:29:28;19.97;;;14.13;;
38425;SDS011;24210;51.460;6.148;2022-12-18T09:31:53;25.63;;;16.53;;
38425;SDS011;24210;51.460;6.148;2022-12-18T09:34:18;22.13;;;14.73;;
38425;SDS011;24210;51.460;6.148;2022-12-18T09:36:46;20.27;;;13.10;;
38425;SDS011;24210;51.460;6.148;2022-12-18T09:39:11;23.73;;;18.43;;
38425;SDS011;24210;51.460;6.148;2022-12-18T09:44:10;21.77;;;14.33;;
38425;SDS011;24210;51.460;6.148;2022-12-18T09:46:37;22.98;;;14.52;;
38425;SDS011;24210;51.460;6.148;2022-12-18T09:49:05;23.83;;;15.13;;
38425;SDS011;24210;51.460;6.148;2022-12-18T09:54:01;21.15;;;14.30;;
38425;SDS011;24210;51.460;6.148;2022-12-18T09:56:28;23.17;;;16.38;;
38425;SDS011;24210;51.460;6.148;2022-12-18T09:58:57;22.55;;;14.88;;
38425;SDS011;24210;51.460;6.148;2022-12-18T10:01:23;21.95;;;14.48;;
38425;SDS011;24210;51.460;6.148;2022-12-18T10:03:49;23.17;;;15.53;;
38425;SDS011;24210;51.460;6.148;2022-12-18T10:06:29;21.97;;;15.20;;
38425;SDS011;24210;51.460;6.148;2022-12-18T10:11:43;22.58;;;16.25;;
38425;SDS011;24210;51.460;6.148;2022-12-18T10:14:15;23.83;;;15.40;;
38425;SDS011;24210;51.460;6.148;2022-12-18T10:26:38;19.43;;;14.93;;
38425;SDS011;24210;51.460;6.148;2022-12-18T10:29:08;19.60;;;13.20;;
38425;SDS011;24210;51.460;6.148;2022-12-18T10:31:34;22.52;;;15.45;;
38425;SDS011;24210;51.460;6.148;2022-12-18T10:34:00;22.53;;;16.83;;
38425;SDS011;24210;51.460;6.148;2022-12-18T10:36:25;27.33;;;16.90;;
38425;SDS011;24210;51.460;6.148;2022-12-18T10:38:50;22.17;;;16.33;;
38425;SDS011;24210;51.460;6.148;2022-12-18T10:43:45;23.88;;;17.60;;
38425;SDS011;24210;51.460;6.148;2022-12-18T10:46:12;21.33;;;14.37;;
38425;SDS011;24210;51.460;6.148;2022-12-18T10:48:40;22.20;;;17.83;;
38425;SDS011;24210;51.460;6.148;2022-12-18T10:51:07;23.63;;;17.92;;
38425;SDS011;24210;51.460;6.148;2022-12-18T10:53:33;23.70;;;15.93;;
38425;SDS011;24210;51.460;6.148;2022-12-18T10:55:59;22.02;;;15.57;;
38425;SDS011;24210;51.460;6.148;2022-12-18T10:58:34;26.33;;;18.07;;
38425;SDS011;24210;51.460;6.148;2022-12-18T11:03:29;29.88;;;19.20;;
38425;SDS011;24210;51.460;6.148;2022-12-18T11:06:03;25.17;;;16.30;;
38425;SDS011;24210;51.460;6.148;2022-12-18T11:08:29;23.85;;;15.65;;
38425;SDS011;24210;51.460;6.148;2022-12-18T11:10:54;22.93;;;15.40;;
38425;SDS011;24210;51.460;6.148;2022-12-18T11:13:20;27.10;;;19.07;;
38425;SDS011;24210;51.460;6.148;2022-12-18T11:15:46;21.08;;;18.80;;
38425;SDS011;24210;51.460;6.148;2022-12-18T11:18:31;21.17;;;15.77;;
38425;SDS011;24210;51.460;6.148;2022-12-18T11:21:04;26.88;;;17.33;;
38425;SDS011;24210;51.460;6.148;2022-12-18T11:23:30;22.92;;;14.77;;
38425;SDS011;24210;51.460;6.148;2022-12-18T11:25:57;23.00;;;16.90;;
38425;SDS011;24210;51.460;6.148;2022-12-18T11:33:42;22.42;;;16.92;;
38425;SDS011;24210;51.460;6.148;2022-12-18T11:36:10;25.20;;;16.77;;
38425;SDS011;24210;51.460;6.148;2022-12-18T11:38:36;19.37;;;14.33;;
38425;SDS011;24210;51.460;6.148;2022-12-18T11:43:28;24.13;;;18.65;;
38425;SDS011;24210;51.460;6.148;2022-12-18T11:46:01;26.60;;;17.85;;
38425;SDS011;24210;51.460;6.148;2022-12-18T11:48:29;23.42;;;16.35;;
38425;SDS011;24210;51.460;6.148;2022-12-18T11:50:57;25.13;;;16.80;;
38425;SDS011;24210;51.460;6.148;2022-12-18T11:55:50;24.67;;;15.03;;
38425;SDS011;24210;51.460;6.148;2022-12-18T12:00:46;22.07;;;14.17;;
38425;SDS011;24210;51.460;6.148;2022-12-18T12:03:22;26.42;;;17.98;;
38425;SDS011;24210;51.460;6.148;2022-12-18T12:23:57;23.10;;;17.10;;
38425;SDS011;24210;51.460;6.148;2022-12-18T12:34:58;27.25;;;17.17;;
38425;SDS011;24210;51.460;6.148;2022-12-18T12:39:49;27.17;;;16.10;;
38425;SDS011;24210;51.460;6.148;2022-12-18T12:45:32;24.80;;;17.08;;
38425;SDS011;24210;51.460;6.148;2022-12-18T12:47:59;26.92;;;16.48;;
38425;SDS011;24210;51.460;6.148;2022-12-18T12:50:26;25.77;;;18.42;;
38425;SDS011;24210;51.460;6.148;2022-12-18T12:52:53;26.17;;;17.85;;
38425;SDS011;24210;51.460;6.148;2022-12-18T12:55:24;26.48;;;19.77;;
38425;SDS011;24210;51.460;6.148;2022-12-18T12:58:06;27.05;;;18.40;;
38425;SDS011;24210;51.460;6.148;2022-12-18T13:00:53;25.70;;;17.23;;
38425;SDS011;24210;51.460;6.148;2022-12-18T13:05:53;26.97;;;18.83;;
38425;SDS011;24210;51.460;6.148;2022-12-18T13:08:26;27.67;;;19.20;;
38425;SDS011;24210;51.460;6.148;2022-12-18T13:10:52;26.83;;;19.90;;
38425;SDS011;24210;51.460;6.148;2022-12-18T13:16:06;26.52;;;18.63;;
38425;SDS011;24210;51.460;6.148;2022-12-18T13:18:32;28.60;;;18.58;;
38425;SDS011;24210;51.460;6.148;2022-12-18T13:25:48;29.37;;;17.47;;
38425;SDS011;24210;51.460;6.148;2022-12-18T13:28:18;26.93;;;17.50;;
38425;SDS011;24210;51.460;6.148;2022-12-18T13:35:51;28.45;;;17.00;;
38425;SDS011;24210;51.460;6.148;2022-12-18T13:38:24;24.58;;;19.15;;
38425;SDS011;24210;51.460;6.148;2022-12-18T13:40:57;26.45;;;18.65;;
38425;SDS011;24210;51.460;6.148;2022-12-18T13:43:36;27.10;;;19.20;;
38425;SDS011;24210;51.460;6.148;2022-12-18T13:48:31;30.43;;;20.83;;
38425;SDS011;24210;51.460;6.148;2022-12-18T13:53:24;26.02;;;18.60;;
38425;SDS011;24210;51.460;6.148;2022-12-18T13:55:50;30.45;;;21.08;;
38425;SDS011;24210;51.460;6.148;2022-12-18T13:58:16;28.63;;;19.77;;
38425;SDS011;24210;51.460;6.148;2022-12-18T14:00:42;26.20;;;18.23;;
38425;SDS011;24210;51.460;6.148;2022-12-18T14:03:18;26.50;;;18.70;;
38425;SDS011;24210;51.460;6.148;2022-12-18T14:05:44;30.30;;;19.50;;
38425;SDS011;24210;51.460;6.148;2022-12-18T14:08:10;25.33;;;17.63;;
38425;SDS011;24210;51.460;6.148;2022-12-18T14:10:39;25.55;;;18.67;;
38425;SDS011;24210;51.460;6.148;2022-12-18T14:13:05;29.33;;;21.38;;
38425;SDS011;24210;51.460;6.148;2022-12-18T14:17:59;28.95;;;19.70;;
38425;SDS011;24210;51.460;6.148;2022-12-18T14:20:26;27.63;;;20.10;;
38425;SDS011;24210;51.460;6.148;2022-12-18T14:22:52;31.50;;;19.83;;
38425;SDS011;24210;51.460;6.148;2022-12-18T14:25:18;30.50;;;18.10;;
38425;SDS011;24210;51.460;6.148;2022-12-18T14:27:45;27.67;;;17.88;;
38425;SDS011;24210;51.460;6.148;2022-12-18T14:32:36;30.02;;;19.33;;
38425;SDS011;24210;51.460;6.148;2022-12-18T14:35:12;28.53;;;20.57;;
38425;SDS011;24210;51.460;6.148;2022-12-18T14:37:37;33.10;;;22.50;;
38425;SDS011;24210;51.460;6.148;2022-12-18T14:40:03;31.83;;;22.70;;
38425;SDS011;24210;51.460;6.148;2022-12-18T14:42:29;32.17;;;19.48;;
38425;SDS011;24210;51.460;6.148;2022-12-18T14:47:38;32.75;;;22.13;;
38425;SDS011;24210;51.460;6.148;2022-12-18T14:50:12;32.30;;;24.20;;
38425;SDS011;24210;51.460;6.148;2022-12-18T14:52:38;29.40;;;20.55;;
38425;SDS011;24210;51.460;6.148;2022-12-18T14:55:04;29.77;;;20.60;;
38425;SDS011;24210;51.460;6.148;2022-12-18T14:57:31;28.07;;;18.73;;
38425;SDS011;24210;51.460;6.148;2022-12-18T15:00:07;30.98;;;20.35;;
38425;SDS011;24210;51.460;6.148;2022-12-18T15:02:34;29.13;;;18.98;;
38425;SDS011;24210;51.460;6.148;2022-12-18T15:05:01;30.35;;;20.70;;
38425;SDS011;24210;51.460;6.148;2022-12-18T15:12:36;31.33;;;19.55;;
38425;SDS011;24210;51.460;6.148;2022-12-18T15:15:02;30.52;;;18.73;;
38425;SDS011;24210;51.460;6.148;2022-12-18T15:17:28;29.45;;;20.27;;
38425;SDS011;24210;51.460;6.148;2022-12-18T15:19:57;32.10;;;21.20;;
38425;SDS011;24210;51.460;6.148;2022-12-18T15:24:51;29.30;;;20.83;;
38425;SDS011;24210;51.460;6.148;2022-12-18T15:27:20;28.57;;;18.37;;
38425;SDS011;24210;51.460;6.148;2022-12-18T15:29:59;32.42;;;23.73;;
38425;SDS011;24210;51.460;6.148;2022-12-18T15:32:24;31.58;;;22.02;;
38425;SDS011;24210;51.460;6.148;2022-12-18T15:34:49;33.57;;;21.70;;
38425;SDS011;24210;51.460;6.148;2022-12-18T15:37:14;32.13;;;20.13;;
38425;SDS011;24210;51.460;6.148;2022-12-18T15:39:41;30.33;;;20.27;;
38425;SDS011;24210;51.460;6.148;2022-12-18T15:42:08;30.23;;;20.50;;
38425;SDS011;24210;51.460;6.148;2022-12-18T15:44:52;32.80;;;23.17;;
38425;SDS011;24210;51.460;6.148;2022-12-18T15:47:17;34.97;;;20.77;;
38425;SDS011;24210;51.460;6.148;2022-12-18T15:49:42;33.37;;;20.93;;
38425;SDS011;24210;51.460;6.148;2022-12-18T15:52:07;28.53;;;19.20;;
38425;SDS011;24210;51.460;6.148;2022-12-18T15:57:17;31.77;;;21.35;;
38425;SDS011;24210;51.460;6.148;2022-12-18T15:59:49;31.77;;;21.80;;
38425;SDS011;24210;51.460;6.148;2022-12-18T16:02:18;33.70;;;20.65;;
38425;SDS011;24210;51.460;6.148;2022-12-18T16:04:44;32.60;;;21.45;;
38425;SDS011;24210;51.460;6.148;2022-12-18T16:07:10;34.53;;;24.05;;
38425;SDS011;24210;51.460;6.148;2022-12-18T16:09:36;34.27;;;26.20;;
38425;SDS011;24210;51.460;6.148;2022-12-18T16:12:01;32.93;;;23.60;;
38425;SDS011;24210;51.460;6.148;2022-12-18T16:14:30;37.40;;;24.47;;
38425;SDS011;24210;51.460;6.148;2022-12-18T16:16:57;37.45;;;24.75;;
38425;SDS011;24210;51.460;6.148;2022-12-18T16:19:22;33.00;;;22.10;;
38425;SDS011;24210;51.460;6.148;2022-12-18T16:21:47;36.87;;;22.57;;
38425;SDS011;24210;51.460;6.148;2022-12-18T16:24:17;34.40;;;22.25;;
38425;SDS011;24210;51.460;6.148;2022-12-18T16:26:43;29.75;;;21.65;;
38425;SDS011;24210;51.460;6.148;2022-12-18T16:29:08;33.50;;;21.90;;
38425;SDS011;24210;51.460;6.148;2022-12-18T16:31:34;28.53;;;20.73;;
38425;SDS011;24210;51.460;6.148;2022-12-18T16:34:18;36.03;;;25.40;;
38425;SDS011;24210;51.460;6.148;2022-12-18T16:36:47;36.10;;;24.70;;
38425;SDS011;24210;51.460;6.148;2022-12-18T16:39:12;34.53;;;23.97;;